Time;durP1;ratioP1;P1;durP2;ratioP2;P2;SDS_P1;SDS_P2;PMS_P1;PMS_P2;Temp;Humidity;BMP_temperature;BMP_pressure;BME280_temperature;BME280_humidity;BME280_pressure;Samples;Min_cycle;Max_cycle;Signal;HPM_P1;HPM_P2
2021/10/07 00:00:53;;;;;;;1.20;1.00;;;11.60;98.00;;;;;;5050943;28;20487;-67
2021/10/07 00:03:21;;;;;;;1.20;1.03;;;11.50;98.00;;;;;;5050701;28;20450;-67
2021/10/07 00:05:48;;;;;;;1.20;1.00;;;11.50;98.00;;;;;;5050891;28;20457;-67
2021/10/07 00:08:15;;;;;;;1.20;1.00;;;11.50;98.00;;;;;;5050551;28;20531;-68
2021/10/07 00:10:42;;;;;;;1.20;1.00;;;11.60;98.00;;;;;;5050716;28;20495;-68
2021/10/07 00:13:09;;;;;;;1.20;1.10;;;11.60;98.00;;;;;;5050631;28;20487;-67
2021/10/07 00:15:37;;;;;;;1.20;1.10;;;11.60;98.00;;;;;;5050714;28;20458;-68
2021/10/07 00:18:04;;;;;;;1.20;1.10;;;11.50;98.00;;;;;;5050626;28;20494;-67
2021/10/07 00:20:31;;;;;;;1.20;1.00;;;11.70;98.00;;;;;;5050693;28;20511;-68
2021/10/07 00:22:58;;;;;;;1.20;1.17;;;11.60;98.00;;;;;;5033210;28;20486;-67
2021/10/07 00:25:28;;;;;;;1.40;1.17;;;11.70;98.00;;;;;;5050578;28;20470;-68
2021/10/07 00:28:02;;;;;;;1.30;1.10;;;11.60;98.00;;;;;;5033367;28;20456;-67
2021/10/07 00:30:29;;;;;;;1.20;1.00;;;11.70;98.00;;;;;;5050533;28;20474;-68
2021/10/07 00:33:09;;;;;;;1.20;1.00;;;11.50;98.00;;;;;;5050470;28;20560;-67
2021/10/07 00:35:50;;;;;;;1.20;1.10;;;11.50;98.00;;;;;;5050509;28;20456;-67
2021/10/07 00:41:02;;;;;;;1.20;1.00;;;11.50;98.00;;;;;;5050541;28;20525;-67
2021/10/07 00:43:29;;;;;;;1.30;1.10;;;11.50;98.00;;;;;;5032734;28;20521;-68
2021/10/07 00:45:59;;;;;;;1.20;1.10;;;11.50;98.00;;;;;;5050346;28;20461;-67
2021/10/07 00:48:28;;;;;;;1.20;1.10;;;11.40;98.00;;;;;;5033038;28;20462;-68
2021/10/07 00:50:55;;;;;;;1.50;1.30;;;11.30;98.00;;;;;;5050348;28;20490;-68
2021/10/07 00:53:22;;;;;;;1.20;1.00;;;11.20;98.00;;;;;;5050098;28;20518;-68
2021/10/07 00:55:49;;;;;;;1.20;1.10;;;11.10;98.00;;;;;;5033354;28;20826;-68
2021/10/07 00:58:17;;;;;;;3.03;1.50;;;11.00;98.00;;;;;;5053950;28;20459;-68
2021/10/07 01:00:44;;;;;;;1.20;1.20;;;11.00;98.00;;;;;;5036094;28;21009;-67
2021/10/07 01:03:14;;;;;;;1.53;1.30;;;11.10;98.00;;;;;;5053944;28;20879;-67
2021/10/07 01:05:42;;;;;;;1.20;1.00;;;11.10;98.00;;;;;;5053918;28;20463;-67
2021/10/07 01:08:10;;;;;;;1.20;1.00;;;11.20;98.00;;;;;;5053717;28;20486;-67
2021/10/07 01:10:37;;;;;;;1.20;1.00;;;11.10;98.00;;;;;;5053872;28;20461;-68
2021/10/07 01:13:06;;;;;;;1.50;1.10;;;11.10;98.00;;;;;;5036068;28;20986;-68
2021/10/07 01:15:33;;;;;;;1.23;1.03;;;11.10;98.00;;;;;;5053765;28;20904;-68
2021/10/07 01:18:00;;;;;;;1.20;1.00;;;11.20;98.00;;;;;;5053630;28;20494;-67
2021/10/07 01:20:28;;;;;;;1.57;1.00;;;11.30;98.00;;;;;;5053621;28;20511;-68
2021/10/07 01:22:55;;;;;;;1.33;1.17;;;11.40;98.00;;;;;;5053652;28;20451;-67
2021/10/07 01:25:22;;;;;;;3.83;1.10;;;11.50;98.00;;;;;;5053382;28;20546;-68
2021/10/07 01:27:56;;;;;;;1.20;1.00;;;11.60;98.00;;;;;;5035724;28;20486;-68
2021/10/07 01:30:23;;;;;;;1.60;1.13;;;11.70;98.00;;;;;;5053280;28;20494;-67
2021/10/07 01:32:50;;;;;;;1.20;1.00;;;11.60;98.00;;;;;;5053380;28;20880;-67
2021/10/07 01:35:30;;;;;;;1.20;1.10;;;11.50;98.00;;;;;;5053440;28;20485;-67
2021/10/07 01:38:06;;;;;;;1.20;1.00;;;11.40;98.00;;;;;;5053400;28;20948;-67
2021/10/07 01:40:33;;;;;;;1.30;1.10;;;11.30;98.00;;;;;;5053491;28;20513;-67
2021/10/07 01:43:00;;;;;;;1.20;1.00;;;11.40;98.00;;;;;;5053503;28;20508;-67
2021/10/07 01:45:27;;;;;;;1.20;1.00;;;11.40;98.00;;;;;;5053424;28;20700;-68
2021/10/07 01:47:54;;;;;;;1.33;1.10;;;11.40;98.00;;;;;;5053298;28;20459;-68
2021/10/07 01:50:21;;;;;;;1.20;1.00;;;11.40;98.00;;;;;;5053138;28;20515;-68
2021/10/07 01:52:50;;;;;;;1.20;1.00;;;11.50;98.00;;;;;;5035365;28;20885;-67
2021/10/07 01:55:18;;;;;;;1.20;1.00;;;11.40;98.00;;;;;;5052892;28;21040;-68
2021/10/07 01:57:46;;;;;;;1.30;1.10;;;11.30;98.00;;;;;;5053007;28;20449;-67
2021/10/07 02:00:13;;;;;;;1.20;1.17;;;11.30;98.00;;;;;;5053160;28;20509;-67
2021/10/07 02:02:42;;;;;;;1.20;1.03;;;11.40;98.00;;;;;;5052866;28;20465;-67
2021/10/07 02:05:10;;;;;;;1.43;1.17;;;11.50;98.00;;;;;;5052914;28;21020;-68
2021/10/07 02:07:37;;;;;;;1.87;1.10;;;11.40;98.00;;;;;;5051533;28;20453;-67
2021/10/07 02:10:08;;;;;;;2.53;1.20;;;11.40;98.00;;;;;;5034936;28;20463;-67
2021/10/07 02:12:37;;;;;;;1.20;1.10;;;11.50;98.00;;;;;;5052536;28;20523;-67
2021/10/07 02:15:04;;;;;;;1.20;1.07;;;11.50;98.00;;;;;;5052699;28;20895;-67
2021/10/07 02:17:31;;;;;;;1.20;1.00;;;11.60;98.00;;;;;;5052770;28;20556;-67
2021/10/07 02:19:58;;;;;;;1.43;1.10;;;11.50;98.00;;;;;;5052826;28;21097;-67
2021/10/07 02:22:25;;;;;;;1.20;1.00;;;11.50;98.00;;;;;;5052470;28;20454;-67
2021/10/07 02:24:52;;;;;;;1.20;1.07;;;11.50;98.00;;;;;;5052794;28;20491;-67
2021/10/07 02:27:19;;;;;;;1.20;1.10;;;11.40;98.00;;;;;;5053476;28;20464;-66
2021/10/07 02:29:48;;;;;;;1.30;1.00;;;11.40;98.00;;;;;;5052701;28;21019;-68
2021/10/07 02:32:15;;;;;;;1.20;1.00;;;11.30;98.00;;;;;;5053124;28;20494;-67
2021/10/07 02:34:45;;;;;;;1.20;1.00;;;11.40;98.00;;;;;;5052727;28;20487;-66
2021/10/07 02:37:12;;;;;;;2.00;1.53;;;11.40;98.00;;;;;;5034425;28;20473;-67
2021/10/07 02:39:41;;;;;;;1.20;1.00;;;11.30;98.00;;;;;;5052218;28;21027;-68
2021/10/07 02:42:09;;;;;;;1.20;1.00;;;11.50;98.00;;;;;;5052213;28;20870;-68
2021/10/07 02:44:36;;;;;;;1.20;1.00;;;11.60;98.00;;;;;;5052194;28;20833;-67
2021/10/07 02:47:04;;;;;;;3.13;1.10;;;11.60;98.00;;;;;;5052199;28;20464;-68
2021/10/07 02:49:31;;;;;;;1.20;1.20;;;11.60;98.00;;;;;;5051984;28;20487;-67
2021/10/07 02:51:58;;;;;;;1.50;1.30;;;11.70;98.00;;;;;;5052102;28;20479;-67
2021/10/07 02:54:25;;;;;;;1.20;1.00;;;11.70;98.00;;;;;;5051846;28;20917;-68
2021/10/07 02:56:52;;;;;;;1.20;1.00;;;11.70;98.00;;;;;;5051996;28;20499;-67
2021/10/07 02:59:19;;;;;;;1.20;0.90;;;11.70;98.00;;;;;;5051614;28;20862;-67
2021/10/07 03:01:46;;;;;;;1.40;1.27;;;11.60;98.00;;;;;;5051895;28;21030;-67
2021/10/07 03:04:16;;;;;;;1.30;1.20;;;11.50;98.00;;;;;;5051980;28;20868;-68
2021/10/07 03:06:43;;;;;;;1.20;1.00;;;11.50;98.00;;;;;;5034413;28;20813;-67
2021/10/07 03:09:10;;;;;;;1.20;1.00;;;11.30;98.00;;;;;;5034062;28;20554;-67
2021/10/07 03:11:37;;;;;;;1.60;1.23;;;11.30;98.00;;;;;;5051776;28;20954;-68
2021/10/07 03:14:04;;;;;;;1.20;1.00;;;11.30;98.00;;;;;;5051572;28;20484;-67
2021/10/07 03:16:33;;;;;;;1.50;1.40;;;11.40;98.00;;;;;;5033902;28;20494;-68
2021/10/07 03:19:00;;;;;;;1.63;1.40;;;11.50;98.00;;;;;;5051083;28;20470;-68
2021/10/07 03:21:28;;;;;;;1.20;1.10;;;11.50;98.00;;;;;;5051391;28;20942;-67
2021/10/07 03:23:56;;;;;;;1.20;1.00;;;11.50;98.00;;;;;;5051385;28;20457;-66
2021/10/07 03:26:23;;;;;;;1.70;1.20;;;11.70;98.00;;;;;;5051164;28;20831;-67
2021/10/07 03:28:50;;;;;;;2.23;1.87;;;11.60;98.00;;;;;;5051109;28;20486;-68
2021/10/07 03:31:17;;;;;;;1.20;1.00;;;11.60;98.00;;;;;;5033444;28;20459;-67
2021/10/07 03:33:47;;;;;;;1.20;1.10;;;11.60;98.00;;;;;;5051399;28;20574;-67
2021/10/07 03:36:14;;;;;;;1.30;1.20;;;11.40;98.00;;;;;;5051120;28;20462;-68
2021/10/07 03:39:01;;;;;;;1.20;1.00;;;11.30;98.00;;;;;;5050966;28;20505;-67
2021/10/07 03:41:28;;;;;;;1.67;1.07;;;11.30;98.00;;;;;;5032845;28;20546;-68
2021/10/07 03:43:55;;;;;;;1.20;1.00;;;11.30;98.00;;;;;;5051143;28;20489;-68
2021/10/07 03:46:22;;;;;;;1.20;1.00;;;11.30;98.00;;;;;;5051001;28;20540;-67
2021/10/07 03:48:49;;;;;;;1.30;1.03;;;11.30;98.00;;;;;;5051025;28;20886;-67
2021/10/07 03:51:16;;;;;;;1.60;1.20;;;11.30;98.00;;;;;;5050995;28;20497;-68
2021/10/07 03:53:44;;;;;;;1.40;1.40;;;11.30;98.00;;;;;;5050784;28;20542;-67
2021/10/07 03:56:12;;;;;;;1.33;1.13;;;11.40;98.00;;;;;;5050989;28;20500;-67
2021/10/07 03:58:39;;;;;;;1.20;1.10;;;11.40;98.00;;;;;;5050858;28;20514;-68
2021/10/07 04:01:06;;;;;;;1.20;1.07;;;11.40;98.00;;;;;;5050864;28;21024;-67
2021/10/07 04:03:33;;;;;;;1.20;1.00;;;11.50;98.00;;;;;;5050706;28;20478;-68
2021/10/07 04:06:01;;;;;;;1.60;1.30;;;11.50;98.00;;;;;;5050800;28;20504;-67
2021/10/07 04:08:28;;;;;;;1.40;1.00;;;11.40;98.00;;;;;;5050541;28;20460;-67
2021/10/07 04:10:56;;;;;;;1.50;1.20;;;11.30;98.00;;;;;;5050786;28;20511;-68
2021/10/07 04:13:26;;;;;;;1.20;1.00;;;11.30;98.00;;;;;;5032634;28;20563;-68
2021/10/07 04:15:53;;;;;;;1.20;0.90;;;11.10;98.00;;;;;;5050881;28;20461;-67
2021/10/07 04:18:21;;;;;;;1.20;1.10;;;11.20;98.00;;;;;;5050630;28;20490;-68
2021/10/07 04:20:49;;;;;;;1.20;1.10;;;11.20;98.00;;;;;;5050757;28;20486;-67
2021/10/07 04:23:18;;;;;;;1.50;1.37;;;11.10;98.00;;;;;;5050775;28;20471;-68
2021/10/07 04:25:45;;;;;;;1.70;1.10;;;11.10;98.00;;;;;;5050354;28;20749;-68
2021/10/07 04:28:12;;;;;;;1.63;1.10;;;11.10;98.00;;;;;;5050696;28;20590;-68
2021/10/07 04:30:41;;;;;;;1.90;1.27;;;11.20;98.00;;;;;;5051681;28;20555;-67
2021/10/07 04:33:10;;;;;;;1.40;1.10;;;11.20;98.00;;;;;;5054480;28;20575;-67
2021/10/07 04:35:37;;;;;;;1.20;1.00;;;11.10;98.00;;;;;;5054594;28;20464;-68
2021/10/07 04:38:05;;;;;;;1.20;1.00;;;11.10;98.00;;;;;;5054267;28;20509;-67
2021/10/07 04:40:33;;;;;;;1.40;1.30;;;11.20;98.00;;;;;;5054474;28;20454;-67
2021/10/07 04:43:00;;;;;;;4.70;1.20;;;11.30;98.00;;;;;;5054222;28;20524;-67
2021/10/07 04:45:27;;;;;;;1.20;1.00;;;11.40;98.00;;;;;;5054346;28;20466;-67
2021/10/07 04:47:56;;;;;;;1.20;1.00;;;11.50;98.00;;;;;;5054356;28;21005;-67
2021/10/07 04:50:23;;;;;;;1.20;1.20;;;11.50;98.00;;;;;;5054197;28;20884;-68
2021/10/07 04:52:50;;;;;;;2.87;1.30;;;11.50;98.00;;;;;;5053985;28;20462;-67
2021/10/07 04:55:17;;;;;;;2.03;1.00;;;11.50;98.00;;;;;;5054095;28;20456;-68
2021/10/07 04:57:44;;;;;;;1.20;1.00;;;11.70;98.00;;;;;;5054055;28;20894;-68
2021/10/07 05:00:13;;;;;;;1.30;1.13;;;11.70;98.00;;;;;;5054308;28;20502;-67
2021/10/07 05:02:41;;;;;;;1.20;1.00;;;11.70;98.00;;;;;;5036276;28;20473;-67
2021/10/07 05:05:10;;;;;;;1.20;1.10;;;11.60;98.00;;;;;;5053879;28;20513;-67
2021/10/07 05:07:39;;;;;;;1.20;1.00;;;11.60;98.00;;;;;;5053831;28;20491;-67
2021/10/07 05:10:08;;;;;;;1.60;1.07;;;11.50;98.00;;;;;;5053847;28;20451;-67
2021/10/07 05:12:35;;;;;;;1.63;1.10;;;11.50;98.00;;;;;;5036020;28;20519;-67
2021/10/07 05:15:04;;;;;;;1.20;1.00;;;11.40;98.00;;;;;;5036144;28;20533;-68
2021/10/07 05:17:31;;;;;;;1.30;1.20;;;11.40;98.00;;;;;;5053674;28;20490;-66
2021/10/07 05:19:58;;;;;;;1.57;1.17;;;11.40;98.00;;;;;;5053734;28;20558;-68
2021/10/07 05:22:27;;;;;;;1.37;1.20;;;11.40;98.00;;;;;;5053602;28;20491;-67
2021/10/07 05:24:53;;;;;;;1.20;1.00;;;11.40;98.00;;;;;;5053388;28;20487;-67
2021/10/07 05:27:21;;;;;;;1.40;1.10;;;11.50;98.00;;;;;;5053532;28;20504;-68
2021/10/07 05:29:47;;;;;;;1.20;1.00;;;11.50;98.00;;;;;;5035693;28;20454;-68
2021/10/07 05:32:14;;;;;;;1.20;1.10;;;11.50;98.00;;;;;;5053403;28;20492;-67
2021/10/07 05:34:41;;;;;;;1.20;1.00;;;11.50;98.00;;;;;;5053195;28;20539;-68
2021/10/07 05:37:08;;;;;;;1.20;1.00;;;11.50;98.00;;;;;;5053491;28;20509;-67
2021/10/07 05:39:38;;;;;;;1.20;1.00;;;11.50;98.00;;;;;;5053140;28;20453;-68
2021/10/07 05:42:07;;;;;;;1.50;1.07;;;11.50;98.00;;;;;;5052959;28;20899;-67
2021/10/07 05:44:34;;;;;;;1.70;1.20;;;11.50;98.00;;;;;;5035562;28;20472;-68
2021/10/07 05:47:01;;;;;;;1.20;1.07;;;11.50;98.00;;;;;;5053315;28;20513;-68
2021/10/07 05:49:28;;;;;;;1.20;1.10;;;11.40;98.00;;;;;;5053409;28;20526;-67
2021/10/07 05:51:55;;;;;;;1.20;0.90;;;11.50;98.00;;;;;;5053174;28;20456;-67
2021/10/07 05:54:23;;;;;;;1.20;1.07;;;11.50;98.00;;;;;;5053009;28;20487;-67
2021/10/07 05:56:51;;;;;;;1.20;1.00;;;11.60;98.00;;;;;;5052966;28;20515;-67
2021/10/07 05:59:18;;;;;;;1.70;1.17;;;11.70;98.00;;;;;;5052964;28;20457;-67
2021/10/07 06:01:45;;;;;;;1.20;1.10;;;11.70;98.00;;;;;;5052937;28;20882;-67
2021/10/07 06:04:12;;;;;;;1.20;1.00;;;11.70;98.00;;;;;;5052833;28;20483;-67
2021/10/07 06:06:39;;;;;;;1.20;1.00;;;11.70;98.00;;;;;;5052391;28;20453;-67
2021/10/07 06:09:07;;;;;;;1.20;1.00;;;11.70;98.00;;;;;;5035091;28;20488;-68
2021/10/07 06:11:35;;;;;;;1.20;1.00;;;11.60;98.00;;;;;;5034808;28;20543;-68
2021/10/07 06:14:10;;;;;;;1.20;1.10;;;11.50;98.00;;;;;;5052652;28;20519;-68
2021/10/07 06:16:39;;;;;;;1.20;1.00;;;11.60;98.00;;;;;;5052389;28;20463;-68
2021/10/07 06:19:09;;;;;;;1.20;1.10;;;11.70;98.00;;;;;;5052434;28;20900;-69
2021/10/07 06:21:36;;;;;;;1.20;1.00;;;11.80;98.00;;;;;;5052475;28;20497;-68
2021/10/07 06:24:04;;;;;;;1.20;1.03;;;11.70;98.00;;;;;;5052555;28;20484;-68
2021/10/07 06:26:31;;;;;;;1.30;1.20;;;11.70;98.00;;;;;;5052257;28;20487;-68
2021/10/07 06:28:58;;;;;;;1.20;1.00;;;11.80;98.00;;;;;;5052254;28;20459;-68
2021/10/07 06:31:26;;;;;;;1.40;1.00;;;11.80;98.00;;;;;;5052288;28;20508;-68
2021/10/07 06:33:53;;;;;;;1.20;1.20;;;11.90;98.00;;;;;;5051798;28;20541;-67
2021/10/07 06:36:20;;;;;;;1.23;1.07;;;11.90;98.00;;;;;;5052200;28;20466;-68
2021/10/07 06:38:48;;;;;;;1.20;1.00;;;11.90;98.00;;;;;;5052067;28;20459;-68
2021/10/07 06:41:17;;;;;;;1.30;1.30;;;11.90;98.00;;;;;;5052153;28;20459;-68
2021/10/07 06:43:44;;;;;;;1.73;1.60;;;11.80;98.00;;;;;;5052055;28;20444;-67
2021/10/07 06:46:12;;;;;;;1.20;1.00;;;11.80;98.00;;;;;;5051987;28;20480;-67
2021/10/07 06:48:40;;;;;;;1.20;1.10;;;11.70;98.00;;;;;;5034212;28;20488;-68
2021/10/07 06:51:09;;;;;;;1.20;1.10;;;11.70;98.00;;;;;;5051906;28;20497;-68
2021/10/07 06:53:37;;;;;;;2.03;1.20;;;11.80;98.00;;;;;;5033742;28;21012;-68
2021/10/07 06:56:05;;;;;;;1.20;1.10;;;12.10;98.00;;;;;;5051872;28;20456;-68
2021/10/07 06:58:32;;;;;;;1.70;1.40;;;12.10;98.00;;;;;;5051691;28;20452;-68
2021/10/07 07:00:59;;;;;;;2.30;1.30;;;12.10;98.00;;;;;;5051862;28;20500;-68
2021/10/07 07:03:26;;;;;;;1.20;1.00;;;12.10;98.00;;;;;;5051707;28;20837;-65
2021/10/07 07:05:55;;;;;;;1.30;1.10;;;12.10;98.00;;;;;;5034031;28;20469;-67
2021/10/07 07:08:23;;;;;;;1.20;1.10;;;12.00;98.00;;;;;;5052209;28;20500;-69
2021/10/07 07:10:50;;;;;;;1.30;1.20;;;11.90;98.00;;;;;;5050796;28;21194;-67
2021/10/07 07:13:17;;;;;;;2.50;1.20;;;11.90;98.00;;;;;;5050418;28;20576;-68
2021/10/07 07:15:44;;;;;;;1.50;1.30;;;12.10;98.00;;;;;;5061241;28;21009;-68
2021/10/07 07:18:12;;;;;;;1.40;1.20;;;12.10;98.00;;;;;;5058636;28;20929;-68
2021/10/07 07:20:39;;;;;;;1.20;1.00;;;12.00;98.00;;;;;;5056183;28;20490;-67
2021/10/07 07:23:10;;;;;;;1.67;1.37;;;12.10;98.00;;;;;;5058193;28;20460;-69
2021/10/07 07:25:38;;;;;;;1.20;1.00;;;12.20;98.00;;;;;;5058766;28;20480;-69
2021/10/07 07:28:05;;;;;;;1.30;1.10;;;12.30;98.00;;;;;;5061444;28;20452;-69
2021/10/07 07:30:33;;;;;;;1.47;1.20;;;12.40;98.00;;;;;;5058893;28;20490;-70
2021/10/07 07:33:00;;;;;;;2.13;1.20;;;12.40;98.00;;;;;;5056187;28;20454;-70
2021/10/07 07:35:31;;;;;;;1.20;1.00;;;12.40;98.00;;;;;;5058324;28;20520;-70
2021/10/07 07:37:58;;;;;;;2.70;1.40;;;12.50;98.00;;;;;;5058162;28;20455;-70
2021/10/07 07:40:26;;;;;;;1.20;1.00;;;12.50;98.00;;;;;;5059070;28;21028;-69
2021/10/07 07:42:53;;;;;;;1.30;1.27;;;12.50;98.00;;;;;;5052193;28;20537;-69
2021/10/07 07:45:20;;;;;;;1.40;1.30;;;12.50;98.00;;;;;;5058003;28;20544;-70
2021/10/07 07:47:47;;;;;;;1.20;1.00;;;12.60;98.00;;;;;;5057744;28;20886;-70
2021/10/07 07:50:18;;;;;;;1.50;1.20;;;12.70;98.00;;;;;;5064236;28;20485;-70
2021/10/07 07:52:45;;;;;;;1.20;1.10;;;12.90;98.00;;;;;;5058004;28;20466;-70
2021/10/07 07:55:12;;;;;;;1.50;1.17;;;12.90;98.00;;;;;;5067017;28;20865;-70
2021/10/07 07:57:40;;;;;;;1.30;1.30;;;12.90;98.00;;;;;;5065770;28;20464;-70
2021/10/07 08:00:09;;;;;;;1.20;1.10;;;12.90;98.00;;;;;;5060972;28;20534;-69
2021/10/07 08:02:37;;;;;;;1.30;1.20;;;13.00;98.00;;;;;;5064237;28;20465;-69
2021/10/07 08:05:05;;;;;;;1.23;1.17;;;13.00;98.00;;;;;;5057054;28;20473;-70
2021/10/07 08:07:33;;;;;;;1.57;1.27;;;13.00;98.00;;;;;;5050014;28;20549;-69
2021/10/07 08:10:00;;;;;;;1.40;1.40;;;13.20;98.00;;;;;;5059974;28;20963;-70
2021/10/07 08:12:31;;;;;;;1.30;1.20;;;13.20;98.00;;;;;;5042323;28;20993;-70
2021/10/07 08:15:00;;;;;;;3.67;1.30;;;13.30;98.00;;;;;;5064909;28;21277;-69
2021/10/07 08:17:29;;;;;;;1.20;1.20;;;13.30;98.00;;;;;;5050608;28;20476;-69
2021/10/07 08:19:56;;;;;;;1.20;1.10;;;13.40;98.00;;;;;;5051524;28;20549;-69
2021/10/07 08:22:24;;;;;;;1.50;1.40;;;13.40;98.00;;;;;;5066752;28;20496;-70
2021/10/07 08:24:51;;;;;;;1.30;1.27;;;13.30;98.00;;;;;;5065433;28;20455;-70
2021/10/07 08:27:18;;;;;;;1.30;1.30;;;13.20;98.00;;;;;;5059016;28;20489;-70
2021/10/07 08:29:45;;;;;;;1.20;1.10;;;13.20;98.00;;;;;;5060169;28;20467;-69
2021/10/07 08:32:14;;;;;;;4.80;2.47;;;13.30;98.00;;;;;;5066810;28;20561;-69
2021/10/07 08:34:41;;;;;;;1.40;1.40;;;13.30;98.00;;;;;;5049940;28;20536;-68
2021/10/07 08:37:08;;;;;;;1.87;1.77;;;13.30;98.00;;;;;;5050120;28;20493;-69
2021/10/07 08:39:40;;;;;;;1.50;1.33;;;13.40;98.00;;;;;;5059762;28;20459;-70
2021/10/07 08:42:07;;;;;;;1.57;1.40;;;13.40;98.00;;;;;;5058019;28;20472;-70
2021/10/07 08:44:37;;;;;;;1.20;1.10;;;13.50;98.00;;;;;;5047764;28;20501;-73
2021/10/07 08:47:04;;;;;;;1.63;1.30;;;13.60;98.00;;;;;;5046142;28;20482;-70
2021/10/07 08:49:36;;;;;;;1.60;1.30;;;13.60;98.00;;;;;;5051394;28;20553;-67
2021/10/07 08:52:05;;;;;;;1.30;1.20;;;13.40;98.00;;;;;;5047474;28;20457;-68
2021/10/07 08:54:34;;;;;;;1.40;1.27;;;13.30;98.00;;;;;;5058919;28;20545;-68
2021/10/07 08:57:02;;;;;;;1.30;1.20;;;13.20;98.00;;;;;;5066128;28;20556;-69
2021/10/07 08:59:29;;;;;;;1.30;1.13;;;13.10;98.00;;;;;;5049759;28;20454;-69
2021/10/07 09:01:57;;;;;;;1.50;1.20;;;13.30;98.00;;;;;;5049654;28;20462;-68
2021/10/07 09:04:26;;;;;;;1.47;1.43;;;13.40;98.00;;;;;;5066286;28;20458;-70
2021/10/07 09:06:56;;;;;;;2.77;1.20;;;13.40;98.00;;;;;;5065211;28;20864;-69
2021/10/07 09:09:23;;;;;;;1.30;1.27;;;13.40;98.00;;;;;;5040454;28;20518;-70
2021/10/07 09:11:53;;;;;;;1.93;1.53;;;13.70;98.00;;;;;;5048844;28;20461;-72
2021/10/07 09:14:25;;;;;;;1.40;1.30;;;13.80;98.00;;;;;;5057688;28;20961;-70
2021/10/07 09:16:55;;;;;;;1.50;1.40;;;13.90;98.00;;;;;;5066466;28;21162;-69
2021/10/07 09:19:24;;;;;;;1.40;1.13;;;13.90;98.00;;;;;;5061409;28;20459;-71
2021/10/07 09:21:55;;;;;;;3.10;1.73;;;13.90;98.00;;;;;;5053665;28;20514;-70
2021/10/07 09:24:30;;;;;;;1.67;1.50;;;13.90;98.00;;;;;;5062192;28;20509;-68
2021/10/07 09:27:01;;;;;;;1.30;1.20;;;14.00;98.00;;;;;;5065192;28;20499;-69
2021/10/07 09:29:33;;;;;;;3.23;1.60;;;14.10;98.00;;;;;;5061139;28;20561;-67
2021/10/07 09:32:00;;;;;;;1.37;1.33;;;14.00;98.00;;;;;;5065759;28;20457;-68
2021/10/07 09:34:39;;;;;;;1.40;1.40;;;14.00;98.00;;;;;;5053005;28;20488;-68
2021/10/07 09:37:25;;;;;;;1.40;1.17;;;13.90;98.00;;;;;;5059158;28;20807;-67
2021/10/07 09:39:56;;;;;;;1.20;1.20;;;13.90;98.00;;;;;;5061179;28;20514;-68
2021/10/07 09:42:25;;;;;;;1.20;1.00;;;13.80;98.00;;;;;;5062264;28;20492;-71
2021/10/07 09:45:12;;;;;;;1.20;1.00;;;13.80;98.00;;;;;;5061615;28;20466;-68
2021/10/07 09:47:41;;;;;;;1.43;1.40;;;14.00;98.00;;;;;;5046067;28;20465;-70
2021/10/07 09:50:18;;;;;;;1.20;1.10;;;14.10;98.00;;;;;;5055102;28;20830;-69
2021/10/07 09:52:50;;;;;;;1.50;1.20;;;14.30;98.00;;;;;;5061728;28;20464;-70
2021/10/07 09:55:19;;;;;;;2.13;1.30;;;14.50;98.00;;;;;;5055645;28;20498;-69
2021/10/07 09:58:01;;;;;;;1.37;1.20;;;14.50;98.00;;;;;;5066198;28;20515;-69
2021/10/07 10:00:30;;;;;;;2.60;1.30;;;14.60;98.00;;;;;;5052534;28;21120;-70
2021/10/07 10:02:59;;;;;;;3.73;1.67;;;14.70;98.00;;;;;;5057874;28;20855;-70
2021/10/07 10:05:27;;;;;;;1.57;1.50;;;14.60;98.00;;;;;;5060865;28;20458;-69
2021/10/07 10:07:56;;;;;;;1.30;1.20;;;14.50;98.00;;;;;;5063558;28;20508;-71
2021/10/07 10:10:24;;;;;;;1.53;1.20;;;14.40;98.00;;;;;;5034980;28;20554;-70
2021/10/07 10:12:52;;;;;;;1.40;1.30;;;14.40;98.00;;;;;;5051723;28;20808;-69
2021/10/07 10:15:21;;;;;;;1.80;1.60;;;14.60;98.00;;;;;;5051741;28;20590;-69
2021/10/07 10:17:52;;;;;;;1.20;1.03;;;14.80;98.00;;;;;;5066012;28;20462;-71
2021/10/07 10:20:22;;;;;;;1.83;1.70;;;15.00;98.00;;;;;;5068534;28;20490;-69
2021/10/07 10:22:54;;;;;;;1.50;1.40;;;15.10;98.00;;;;;;5054731;28;20465;-70
2021/10/07 10:25:23;;;;;;;1.30;1.20;;;14.90;98.00;;;;;;5060793;28;20475;-69
2021/10/07 10:27:54;;;;;;;1.70;1.40;;;15.00;98.00;;;;;;5060255;28;20491;-69
2021/10/07 10:30:32;;;;;;;1.97;1.40;;;14.90;98.00;;;;;;5063955;28;20510;-70
2021/10/07 10:33:01;;;;;;;1.73;1.33;;;14.90;98.00;;;;;;5061799;28;20459;-69
2021/10/07 10:35:37;;;;;;;1.40;1.40;;;15.00;98.00;;;;;;5060496;28;20499;-69
2021/10/07 10:38:06;;;;;;;1.60;1.33;;;15.00;98.00;;;;;;5069342;28;20460;-69
2021/10/07 10:40:35;;;;;;;1.37;1.30;;;15.10;98.00;;;;;;5069248;28;20488;-69
2021/10/07 10:43:30;;;;;;;1.20;1.10;;;15.00;98.00;;;;;;5052690;28;20562;-69
2021/10/07 10:46:13;;;;;;;1.53;1.30;;;15.00;98.00;;;;;;5059374;28;20459;-69
2021/10/07 10:49:00;;;;;;;1.50;1.30;;;15.00;98.00;;;;;;5059792;28;20816;-68
2021/10/07 10:51:32;;;;;;;4.57;1.23;;;15.00;98.00;;;;;;5060392;28;20516;-69
2021/10/07 10:54:02;;;;;;;1.50;1.30;;;15.10;98.00;;;;;;5051102;28;20456;-68
2021/10/07 10:56:39;;;;;;;1.90;1.10;;;15.20;98.00;;;;;;5060983;28;20516;-69
2021/10/07 10:59:23;;;;;;;1.30;1.20;;;15.30;98.00;;;;;;5058748;28;20461;-69
2021/10/07 11:02:27;;;;;;;1.53;1.40;;;15.20;98.00;;;;;;5068130;28;20476;-69
2021/10/07 11:04:57;;;;;;;1.20;1.10;;;15.20;98.00;;;;;;5041944;28;20501;-68
2021/10/07 11:07:35;;;;;;;1.70;1.37;;;15.10;98.00;;;;;;5051832;28;20928;-68
2021/10/07 11:10:07;;;;;;;1.80;1.27;;;15.10;98.00;;;;;;5058112;28;20812;-69
2021/10/07 11:12:55;;;;;;;1.30;1.20;;;15.20;98.00;;;;;;5054173;28;20457;-70
2021/10/07 11:15:26;;;;;;;1.20;1.10;;;15.50;98.00;;;;;;5059241;28;22188;-70
2021/10/07 11:17:54;;;;;;;1.30;1.10;;;15.50;98.00;;;;;;5060108;28;20566;-69
2021/10/07 11:20:26;;;;;;;1.20;1.00;;;15.60;98.00;;;;;;5040393;28;20505;-69
2021/10/07 11:23:08;;;;;;;1.60;1.50;;;15.70;98.00;;;;;;5053540;28;21500;-69
2021/10/07 11:25:37;;;;;;;1.23;1.17;;;15.90;98.00;;;;;;5068277;28;20464;-70
2021/10/07 11:28:07;;;;;;;2.13;1.70;;;16.10;98.00;;;;;;5054205;28;20553;-69
2021/10/07 11:30:37;;;;;;;1.40;1.20;;;16.30;98.00;;;;;;5058680;28;20448;-69
2021/10/07 11:33:06;;;;;;;1.43;1.20;;;16.50;98.00;;;;;;5063585;28;20454;-69
2021/10/07 11:35:35;;;;;;;1.40;1.30;;;16.50;98.00;;;;;;5067096;28;20494;-69
2021/10/07 11:38:11;;;;;;;1.33;1.23;;;16.50;98.00;;;;;;5054444;28;20452;-70
2021/10/07 11:40:43;;;;;;;1.63;1.53;;;16.40;98.00;;;;;;5056298;28;20943;-69
2021/10/07 11:43:16;;;;;;;1.20;1.10;;;16.40;98.00;;;;;;5059244;28;20448;-70
2021/10/07 11:45:45;;;;;;;1.43;1.30;;;16.70;98.00;;;;;;5060056;28;20950;-70
2021/10/07 11:48:12;;;;;;;1.90;1.40;;;16.90;98.00;;;;;;5058401;28;20491;-69
2021/10/07 11:50:42;;;;;;;1.27;1.27;;;17.10;98.00;;;;;;5062467;28;20986;-70
2021/10/07 11:53:12;;;;;;;1.40;1.37;;;17.40;98.00;;;;;;5058597;28;20517;-69
2021/10/07 11:55:44;;;;;;;1.20;1.10;;;17.50;98.00;;;;;;5067249;28;20826;-70
2021/10/07 11:58:15;;;;;;;1.20;1.10;;;17.50;98.00;;;;;;5066674;28;20932;-70
2021/10/07 12:00:44;;;;;;;1.50;1.43;;;17.30;98.00;;;;;;5050774;28;20472;-69
2021/10/07 12:03:18;;;;;;;2.70;1.50;;;17.20;98.00;;;;;;5059410;28;20500;-70
2021/10/07 12:05:47;;;;;;;1.73;1.63;;;17.10;98.00;;;;;;5059651;28;20454;-70
2021/10/07 12:08:16;;;;;;;1.50;1.30;;;17.00;98.00;;;;;;5058868;28;20472;-70
2021/10/07 12:10:46;;;;;;;2.77;1.60;;;16.80;98.00;;;;;;5067558;28;20567;-70
2021/10/07 12:13:17;;;;;;;1.60;1.43;;;16.50;98.00;;;;;;5057613;28;20465;-69
2021/10/07 12:15:49;;;;;;;1.50;1.20;;;16.30;98.00;;;;;;5042326;28;20523;-69
2021/10/07 12:18:16;;;;;;;1.20;1.10;;;16.20;98.00;;;;;;5050431;28;20497;-69
2021/10/07 12:21:07;;;;;;;1.30;1.30;;;16.10;98.00;;;;;;5066144;28;20875;-67
2021/10/07 12:23:54;;;;;;;1.63;1.37;;;16.00;98.00;;;;;;5050921;28;20464;-69
2021/10/07 12:26:30;;;;;;;1.40;1.30;;;15.90;98.00;;;;;;5065495;28;20997;-69
2021/10/07 12:29:00;;;;;;;1.80;1.40;;;15.80;98.00;;;;;;5060367;28;20490;-68
2021/10/07 12:31:29;;;;;;;1.40;1.20;;;15.90;98.00;;;;;;5057530;28;20544;-70
2021/10/07 12:33:59;;;;;;;1.33;1.30;;;15.80;98.00;;;;;;5066841;28;20855;-69
2021/10/07 12:36:36;;;;;;;1.20;1.20;;;15.80;98.00;;;;;;5060098;28;20488;-69
2021/10/07 12:39:05;;;;;;;2.37;1.33;;;15.70;98.00;;;;;;5058578;28;20950;-70
2021/10/07 12:41:36;;;;;;;1.43;1.10;;;15.80;98.00;;;;;;5057899;28;20463;-69
2021/10/07 12:44:06;;;;;;;1.40;1.10;;;15.90;98.00;;;;;;5067718;28;20464;-70
2021/10/07 12:46:44;;;;;;;2.17;1.50;;;16.00;98.00;;;;;;5067205;28;20489;-70
2021/10/07 12:49:12;;;;;;;1.20;1.10;;;16.10;98.00;;;;;;5050813;28;20943;-68
2021/10/07 12:51:46;;;;;;;1.60;1.40;;;16.20;98.00;;;;;;5040922;28;20513;-69
2021/10/07 12:54:15;;;;;;;1.97;1.30;;;16.20;98.00;;;;;;5061006;28;20478;-70
2021/10/07 12:56:44;;;;;;;1.20;1.10;;;16.30;98.00;;;;;;5055405;28;20938;-71
2021/10/07 12:59:13;;;;;;;1.63;1.37;;;16.20;98.00;;;;;;5051240;28;20459;-70
2021/10/07 13:01:43;;;;;;;1.30;1.20;;;16.20;98.00;;;;;;5062144;28;20986;-71